sensor_id;sensor_type;location;lat;lon;timestamp;pressure;altitude;pressure_sealevel;temperature;humidity
64908;BME280;51412;52.236;5.188;2022-07-26T00:01:23;101225.19;;;21.03;75.72
64908;BME280;51412;52.236;5.188;2022-07-26T00:03:51;101230.19;;;21.05;75.92
64908;BME280;51412;52.236;5.188;2022-07-26T00:06:18;101233.00;;;21.01;75.75
64908;BME280;51412;52.236;5.188;2022-07-26T00:08:45;101239.06;;;21.06;75.75
64908;BME280;51412;52.236;5.188;2022-07-26T00:11:11;101240.66;;;21.03;75.94
64908;BME280;51412;52.236;5.188;2022-07-26T00:13:38;101241.53;;;21.00;76.05
64908;BME280;51412;52.236;5.188;2022-07-26T00:16:05;101246.16;;;20.99;76.16
64908;BME280;51412;52.236;5.188;2022-07-26T00:18:32;101244.63;;;20.98;76.06
64908;BME280;51412;52.236;5.188;2022-07-26T00:21:00;101250.81;;;20.99;76.06
64908;BME280;51412;52.236;5.188;2022-07-26T00:23:26;101253.09;;;21.00;76.38
64908;BME280;51412;52.236;5.188;2022-07-26T00:25:53;101249.63;;;21.00;76.19
64908;BME280;51412;52.236;5.188;2022-07-26T00:28:19;101243.81;;;21.01;76.12
64908;BME280;51412;52.236;5.188;2022-07-26T00:30:46;101250.03;;;20.98;75.93
64908;BME280;51412;52.236;5.188;2022-07-26T00:33:12;101251.91;;;21.01;76.12
64908;BME280;51412;52.236;5.188;2022-07-26T00:35:39;101262.38;;;20.99;76.02
64908;BME280;51412;52.236;5.188;2022-07-26T00:38:07;101264.22;;;21.02;75.79
64908;BME280;51412;52.236;5.188;2022-07-26T00:40:33;101263.38;;;21.06;75.70
64908;BME280;51412;52.236;5.188;2022-07-26T00:43:01;101265.66;;;21.07;75.29
64908;BME280;51412;52.236;5.188;2022-07-26T00:45:27;101265.97;;;21.09;75.47
64908;BME280;51412;52.236;5.188;2022-07-26T00:47:54;101258.97;;;21.12;75.11
64908;BME280;51412;52.236;5.188;2022-07-26T00:50:21;101259.75;;;21.12;75.26
64908;BME280;51412;52.236;5.188;2022-07-26T00:52:48;101260.06;;;21.14;75.12
64908;BME280;51412;52.236;5.188;2022-07-26T00:55:17;101262.75;;;21.14;75.05
64908;BME280;51412;52.236;5.188;2022-07-26T00:57:44;101260.06;;;21.14;75.15
64908;BME280;51412;52.236;5.188;2022-07-26T01:00:13;101268.50;;;21.16;74.82
64908;BME280;51412;52.236;5.188;2022-07-26T01:02:41;101264.28;;;21.15;74.89
64908;BME280;51412;52.236;5.188;2022-07-26T01:05:08;101278.13;;;21.17;74.59
64908;BME280;51412;52.236;5.188;2022-07-26T01:07:35;101271.22;;;21.16;74.46
64908;BME280;51412;52.236;5.188;2022-07-26T01:10:03;101279.22;;;21.20;74.49
64908;BME280;51412;52.236;5.188;2022-07-26T01:12:34;101281.91;;;21.20;74.12
64908;BME280;51412;52.236;5.188;2022-07-26T01:15:00;101272.31;;;21.19;73.77
64908;BME280;51412;52.236;5.188;2022-07-26T01:17:27;101273.38;;;21.22;73.42
64908;BME280;51412;52.236;5.188;2022-07-26T01:19:53;101269.94;;;21.21;72.72
64908;BME280;51412;52.236;5.188;2022-07-26T01:22:21;101274.59;;;21.20;71.99
64908;BME280;51412;52.236;5.188;2022-07-26T01:24:47;101265.69;;;21.20;71.77
64908;BME280;51412;52.236;5.188;2022-07-26T01:27:14;101265.38;;;21.18;71.65
64908;BME280;51412;52.236;5.188;2022-07-26T01:29:40;101269.63;;;21.19;71.37
64908;BME280;51412;52.236;5.188;2022-07-26T01:32:07;101265.81;;;21.16;71.35
64908;BME280;51412;52.236;5.188;2022-07-26T01:34:34;101270.44;;;21.16;71.17
64908;BME280;51412;52.236;5.188;2022-07-26T01:37:01;101277.38;;;21.17;71.34
64908;BME280;51412;52.236;5.188;2022-07-26T01:39:29;101268.94;;;21.15;70.67
64908;BME280;51412;52.236;5.188;2022-07-26T01:41:55;101277.06;;;21.15;70.45
64908;BME280;51412;52.236;5.188;2022-07-26T01:44:22;101277.38;;;21.17;70.25
64908;BME280;51412;52.236;5.188;2022-07-26T01:46:49;101277.06;;;21.15;70.26
64908;BME280;51412;52.236;5.188;2022-07-26T01:49:16;101271.31;;;21.13;70.03
64908;BME280;51412;52.236;5.188;2022-07-26T01:51:42;101278.66;;;21.12;69.86
64908;BME280;51412;52.236;5.188;2022-07-26T01:54:09;101275.19;;;21.12;70.12
64908;BME280;51412;52.236;5.188;2022-07-26T01:56:37;101280.59;;;21.12;69.63
64908;BME280;51412;52.236;5.188;2022-07-26T01:59:04;101280.25;;;21.10;69.89
64908;BME280;51412;52.236;5.188;2022-07-26T02:01:30;101279.91;;;21.08;69.84
64908;BME280;51412;52.236;5.188;2022-07-26T02:03:57;101286.09;;;21.08;70.35
64908;BME280;51412;52.236;5.188;2022-07-26T02:06:23;101289.19;;;21.07;70.10
64908;BME280;51412;52.236;5.188;2022-07-26T02:08:50;101289.19;;;21.07;70.03
64908;BME280;51412;52.236;5.188;2022-07-26T02:11:16;101280.78;;;21.05;69.39
64908;BME280;51412;52.236;5.188;2022-07-26T02:13:44;101291.66;;;21.01;69.40
64908;BME280;51412;52.236;5.188;2022-07-26T02:16:13;101285.59;;;20.97;69.38
64908;BME280;51412;52.236;5.188;2022-07-26T02:18:40;101285.25;;;20.95;69.45
64908;BME280;51412;52.236;5.188;2022-07-26T02:21:07;101285.34;;;20.91;69.42
64908;BME280;51412;52.236;5.188;2022-07-26T02:23:34;101282.72;;;20.88;69.59
64908;BME280;51412;52.236;5.188;2022-07-26T02:26:01;101282.81;;;20.84;69.64
64908;BME280;51412;52.236;5.188;2022-07-26T02:28:27;101289.06;;;20.81;69.58
64908;BME280;51412;52.236;5.188;2022-07-26T02:30:55;101290.69;;;20.78;69.67
64908;BME280;51412;52.236;5.188;2022-07-26T02:33:21;101286.88;;;20.76;70.30
64908;BME280;51412;52.236;5.188;2022-07-26T02:35:48;101292.28;;;20.76;70.08
64908;BME280;51412;52.236;5.188;2022-07-26T02:38:15;101287.69;;;20.73;70.13
64908;BME280;51412;52.236;5.188;2022-07-26T02:40:42;101295.91;;;20.69;70.09
64908;BME280;51412;52.236;5.188;2022-07-26T02:43:09;101297.47;;;20.66;70.23
64908;BME280;51412;52.236;5.188;2022-07-26T02:45:36;101297.97;;;20.61;70.51
64908;BME280;51412;52.236;5.188;2022-07-26T02:48:05;101305.72;;;20.59;70.64
64908;BME280;51412;52.236;5.188;2022-07-26T02:50:32;101307.75;;;20.55;71.05
64908;BME280;51412;52.236;5.188;2022-07-26T02:52:58;101310.13;;;20.53;71.18
64908;BME280;51412;52.236;5.188;2022-07-26T02:55:25;101305.16;;;20.51;71.27
64908;BME280;51412;52.236;5.188;2022-07-26T02:57:52;101302.94;;;20.46;71.08
64908;BME280;51412;52.236;5.188;2022-07-26T03:00:20;101308.41;;;20.43;71.22
64908;BME280;51412;52.236;5.188;2022-07-26T03:02:47;101313.91;;;20.39;71.69
64908;BME280;51412;52.236;5.188;2022-07-26T03:05:17;101306.63;;;20.36;71.54
64908;BME280;51412;52.236;5.188;2022-07-26T03:07:44;101315.13;;;20.34;71.76
64908;BME280;51412;52.236;5.188;2022-07-26T03:10:11;101314.81;;;20.32;71.88
64908;BME280;51412;52.236;5.188;2022-07-26T03:12:38;101317.16;;;20.30;71.79
64908;BME280;51412;52.236;5.188;2022-07-26T03:15:05;101321.03;;;20.29;71.95
64908;BME280;51412;52.236;5.188;2022-07-26T03:17:33;101320.75;;;20.24;72.16
64908;BME280;51412;52.236;5.188;2022-07-26T03:20:00;101321.94;;;20.23;72.92
64908;BME280;51412;52.236;5.188;2022-07-26T03:22:29;101318.97;;;20.17;72.53
64908;BME280;51412;52.236;5.188;2022-07-26T03:24:55;101334.47;;;20.13;72.70
64908;BME280;51412;52.236;5.188;2022-07-26T03:27:22;101328.75;;;20.11;72.55
64908;BME280;51412;52.236;5.188;2022-07-26T03:29:48;101334.63;;;20.06;72.78
64908;BME280;51412;52.236;5.188;2022-07-26T03:32:15;101329.72;;;20.00;72.92
64908;BME280;51412;52.236;5.188;2022-07-26T03:34:41;101335.94;;;19.97;73.07
64908;BME280;51412;52.236;5.188;2022-07-26T03:37:08;101333.31;;;19.94;73.15
64908;BME280;51412;52.236;5.188;2022-07-26T03:39:35;101337.25;;;19.89;73.42
64908;BME280;51412;52.236;5.188;2022-07-26T03:42:03;101341.97;;;19.85;73.71
64908;BME280;51412;52.236;5.188;2022-07-26T03:44:30;101348.13;;;19.85;73.65
64908;BME280;51412;52.236;5.188;2022-07-26T03:46:56;101347.38;;;19.85;73.84
64908;BME280;51412;52.236;5.188;2022-07-26T03:49:23;101348.53;;;19.84;73.87
64908;BME280;51412;52.236;5.188;2022-07-26T03:51:50;101347.00;;;19.83;74.12
64908;BME280;51412;52.236;5.188;2022-07-26T03:54:16;101343.13;;;19.84;74.44
64908;BME280;51412;52.236;5.188;2022-07-26T03:56:44;101334.31;;;19.80;74.43
64908;BME280;51412;52.236;5.188;2022-07-26T03:59:10;101345.91;;;19.77;74.52
64908;BME280;51412;52.236;5.188;2022-07-26T04:01:38;101348.97;;;19.79;74.65
64908;BME280;51412;52.236;5.188;2022-07-26T04:04:06;101347.00;;;19.83;75.84
64908;BME280;51412;52.236;5.188;2022-07-26T04:06:32;101349.91;;;20.12;75.66
64908;BME280;51412;52.236;5.188;2022-07-26T04:08:59;101349.25;;;20.45;75.22
64908;BME280;51412;52.236;5.188;2022-07-26T04:11:25;101348.66;;;20.74;74.30
64908;BME280;51412;52.236;5.188;2022-07-26T04:13:53;101343.44;;;20.99;73.36
64908;BME280;51412;52.236;5.188;2022-07-26T04:16:20;101352.19;;;21.20;72.71
64908;BME280;51412;52.236;5.188;2022-07-26T04:18:46;101354.97;;;21.33;71.85
64908;BME280;51412;52.236;5.188;2022-07-26T04:21:13;101360.78;;;21.48;70.58
64908;BME280;51412;52.236;5.188;2022-07-26T04:23:39;101367.03;;;21.61;70.17
64908;BME280;51412;52.236;5.188;2022-07-26T04:26:06;101362.09;;;21.73;69.59
64908;BME280;51412;52.236;5.188;2022-07-26T04:28:32;101380.88;;;21.80;69.55
64908;BME280;51412;52.236;5.188;2022-07-26T04:31:00;101368.66;;;21.88;68.76
64908;BME280;51412;52.236;5.188;2022-07-26T04:33:27;101376.16;;;21.97;68.80
64908;BME280;51412;52.236;5.188;2022-07-26T04:35:53;101379.09;;;22.02;68.58
64908;BME280;51412;52.236;5.188;2022-07-26T04:38:20;101378.56;;;22.08;68.56
64908;BME280;51412;52.236;5.188;2022-07-26T04:40:48;101378.03;;;22.13;68.73
64908;BME280;51412;52.236;5.188;2022-07-26T04:43:14;101368.53;;;22.21;68.25
64908;BME280;51412;52.236;5.188;2022-07-26T04:45:41;101393.88;;;22.27;68.42
64908;BME280;51412;52.236;5.188;2022-07-26T04:48:09;101389.72;;;22.10;68.94
64908;BME280;51412;52.236;5.188;2022-07-26T04:50:35;101385.75;;;21.85;69.40
64908;BME280;51412;52.236;5.188;2022-07-26T04:53:02;101397.56;;;21.62;70.18
64908;BME280;51412;52.236;5.188;2022-07-26T04:55:29;101398.72;;;21.44;70.95
64908;BME280;51412;52.236;5.188;2022-07-26T04:57:55;101393.75;;;21.26;71.98
64908;BME280;51412;52.236;5.188;2022-07-26T05:00:22;101399.25;;;21.06;73.00
64908;BME280;51412;52.236;5.188;2022-07-26T05:02:51;101401.88;;;20.93;73.75
64908;BME280;51412;52.236;5.188;2022-07-26T05:05:19;101399.47;;;20.79;74.16
64908;BME280;51412;52.236;5.188;2022-07-26T05:07:47;101410.44;;;20.72;74.80
64908;BME280;51412;52.236;5.188;2022-07-26T05:10:15;101406.16;;;20.54;75.07
64908;BME280;51412;52.236;5.188;2022-07-26T05:12:43;101409.63;;;20.34;75.84
64908;BME280;51412;52.236;5.188;2022-07-26T05:15:10;101420.69;;;20.20;76.42
64908;BME280;51412;52.236;5.188;2022-07-26T05:17:37;101416.59;;;20.12;77.10
64908;BME280;51412;52.236;5.188;2022-07-26T05:20:05;101416.75;;;20.05;77.45
64908;BME280;51412;52.236;5.188;2022-07-26T05:22:33;101425.72;;;19.98;77.93
64908;BME280;51412;52.236;5.188;2022-07-26T05:24:59;101431.19;;;19.94;78.04
64908;BME280;51412;52.236;5.188;2022-07-26T05:27:26;101422.81;;;19.89;78.12
64908;BME280;51412;52.236;5.188;2022-07-26T05:29:52;101437.34;;;19.95;78.05
64908;BME280;51412;52.236;5.188;2022-07-26T05:32:20;101437.78;;;19.93;78.09
64908;BME280;51412;52.236;5.188;2022-07-26T05:34:46;101438.09;;;19.95;78.34
64908;BME280;51412;52.236;5.188;2022-07-26T05:37:13;101441.91;;;19.98;77.80
64908;BME280;51412;52.236;5.188;2022-07-26T05:39:41;101440.56;;;19.86;77.44
64908;BME280;51412;52.236;5.188;2022-07-26T05:42:07;101449.94;;;19.78;77.66
64908;BME280;51412;52.236;5.188;2022-07-26T05:44:34;101451.59;;;19.72;77.93
64908;BME280;51412;52.236;5.188;2022-07-26T05:47:01;101448.66;;;19.62;78.51
64908;BME280;51412;52.236;5.188;2022-07-26T05:49:28;101454.81;;;19.63;78.53
64908;BME280;51412;52.236;5.188;2022-07-26T05:51:54;101454.94;;;19.56;78.56
64908;BME280;51412;52.236;5.188;2022-07-26T05:54:21;101460.31;;;19.56;79.00
64908;BME280;51412;52.236;5.188;2022-07-26T05:56:49;101453.69;;;19.60;79.06
64908;BME280;51412;52.236;5.188;2022-07-26T05:59:15;101461.72;;;19.64;78.68
64908;BME280;51412;52.236;5.188;2022-07-26T06:01:41;101472.09;;;19.65;78.60
64908;BME280;51412;52.236;5.188;2022-07-26T06:04:08;101465.88;;;19.68;78.44
64908;BME280;51412;52.236;5.188;2022-07-26T06:06:34;101478.66;;;19.64;78.11
64908;BME280;51412;52.236;5.188;2022-07-26T06:09:01;101476.78;;;19.61;77.96
64908;BME280;51412;52.236;5.188;2022-07-26T06:11:28;101481.09;;;19.55;78.22
64908;BME280;51412;52.236;5.188;2022-07-26T06:13:56;101481.88;;;19.56;78.26
64908;BME280;51412;52.236;5.188;2022-07-26T06:16:22;101483.34;;;19.60;78.06
64908;BME280;51412;52.236;5.188;2022-07-26T06:18:49;101489.84;;;19.63;77.95
64908;BME280;51412;52.236;5.188;2022-07-26T06:21:15;101489.44;;;19.64;78.60
64908;BME280;51412;52.236;5.188;2022-07-26T06:23:42;101495.16;;;19.70;78.65
64908;BME280;51412;52.236;5.188;2022-07-26T06:26:08;101497.78;;;19.74;78.45
64908;BME280;51412;52.236;5.188;2022-07-26T06:28:35;101506.13;;;19.83;77.78
64908;BME280;51412;52.236;5.188;2022-07-26T06:31:04;101506.84;;;19.87;76.85
64908;BME280;51412;52.236;5.188;2022-07-26T06:33:30;101514.59;;;19.85;76.94
64908;BME280;51412;52.236;5.188;2022-07-26T06:35:57;101518.03;;;19.85;76.70
64908;BME280;51412;52.236;5.188;2022-07-26T06:38:23;101516.88;;;19.87;76.76
64908;BME280;51412;52.236;5.188;2022-07-26T06:40:50;101523.41;;;19.89;76.60
64908;BME280;51412;52.236;5.188;2022-07-26T06:43:16;101534.97;;;19.86;76.57
64908;BME280;51412;52.236;5.188;2022-07-26T06:45:43;101536.19;;;19.85;76.70
64908;BME280;51412;52.236;5.188;2022-07-26T06:48:11;101541.06;;;19.90;76.72
64908;BME280;51412;52.236;5.188;2022-07-26T06:50:38;101535.31;;;19.92;76.32
64908;BME280;51412;52.236;5.188;2022-07-26T06:53:04;101537.25;;;19.88;75.83
64908;BME280;51412;52.236;5.188;2022-07-26T06:55:31;101543.78;;;19.90;75.76
64908;BME280;51412;52.236;5.188;2022-07-26T06:57:57;101544.66;;;19.83;76.06
64908;BME280;51412;52.236;5.188;2022-07-26T07:00:24;101547.75;;;19.82;76.33
64908;BME280;51412;52.236;5.188;2022-07-26T07:02:50;101548.13;;;19.84;75.98
64908;BME280;51412;52.236;5.188;2022-07-26T07:05:18;101557.25;;;19.90;75.33
64908;BME280;51412;52.236;5.188;2022-07-26T07:07:45;101565.34;;;19.90;75.37
64908;BME280;51412;52.236;5.188;2022-07-26T07:10:12;101561.50;;;19.91;74.62
64908;BME280;51412;52.236;5.188;2022-07-26T07:12:38;101564.56;;;19.93;74.68
64908;BME280;51412;52.236;5.188;2022-07-26T07:15:06;101575.28;;;19.97;74.20
64908;BME280;51412;52.236;5.188;2022-07-26T07:17:33;101579.03;;;20.03;73.88
64908;BME280;51412;52.236;5.188;2022-07-26T07:19:59;101575.53;;;20.06;73.92
64908;BME280;51412;52.236;5.188;2022-07-26T07:22:29;101575.88;;;20.08;73.91
64908;BME280;51412;52.236;5.188;2022-07-26T07:24:55;101570.91;;;20.07;73.97
64908;BME280;51412;52.236;5.188;2022-07-26T07:27:22;101580.34;;;20.18;73.73
64908;BME280;51412;52.236;5.188;2022-07-26T07:29:48;101581.44;;;20.21;73.34
64908;BME280;51412;52.236;5.188;2022-07-26T07:32:15;101581.09;;;20.19;73.55
64908;BME280;51412;52.236;5.188;2022-07-26T07:34:41;101592.59;;;20.23;72.75
64908;BME280;51412;52.236;5.188;2022-07-26T07:37:10;101593.22;;;20.31;72.36
64908;BME280;51412;52.236;5.188;2022-07-26T07:39:37;101589.81;;;20.27;72.97
64908;BME280;51412;52.236;5.188;2022-07-26T07:42:04;101586.75;;;20.28;72.59
64908;BME280;51412;52.236;5.188;2022-07-26T07:44:30;101582.38;;;20.34;72.25
64908;BME280;51412;52.236;5.188;2022-07-26T07:46:57;101587.59;;;20.45;71.79
64908;BME280;51412;52.236;5.188;2022-07-26T07:49:23;101582.84;;;20.53;70.32
64908;BME280;51412;52.236;5.188;2022-07-26T07:51:50;101585.88;;;20.55;70.35
64908;BME280;51412;52.236;5.188;2022-07-26T07:54:16;101591.09;;;20.66;70.34
64908;BME280;51412;52.236;5.188;2022-07-26T07:56:44;101589.41;;;20.76;70.32
64908;BME280;51412;52.236;5.188;2022-07-26T07:59:11;101597.38;;;20.83;69.66
64908;BME280;51412;52.236;5.188;2022-07-26T08:01:37;101596.53;;;20.86;69.52
64908;BME280;51412;52.236;5.188;2022-07-26T08:04:04;101595.72;;;20.89;69.02
64908;BME280;51412;52.236;5.188;2022-07-26T08:06:30;101593.72;;;20.93;68.77
64908;BME280;51412;52.236;5.188;2022-07-26T08:08:57;101607.50;;;20.99;68.12
64908;BME280;51412;52.236;5.188;2022-07-26T08:11:23;101618.72;;;20.97;68.96
64908;BME280;51412;52.236;5.188;2022-07-26T08:13:51;101617.88;;;21.00;68.62
64908;BME280;51412;52.236;5.188;2022-07-26T08:16:18;101617.03;;;21.03;68.37
64908;BME280;51412;52.236;5.188;2022-07-26T08:18:44;101625.03;;;21.11;66.45
64908;BME280;51412;52.236;5.188;2022-07-26T08:21:11;101630.91;;;21.06;66.88
64908;BME280;51412;52.236;5.188;2022-07-26T08:23:37;101628.22;;;21.06;67.59
64908;BME280;51412;52.236;5.188;2022-07-26T08:26:04;101633.03;;;21.14;65.62
64908;BME280;51412;52.236;5.188;2022-07-26T08:28:30;101630.44;;;21.11;65.20
64908;BME280;51412;52.236;5.188;2022-07-26T08:30:58;101639.22;;;21.15;64.74
64908;BME280;51412;52.236;5.188;2022-07-26T08:33:25;101640.72;;;21.16;65.10
64908;BME280;51412;52.236;5.188;2022-07-26T08:35:51;101639.91;;;21.19;65.05
64908;BME280;51412;52.236;5.188;2022-07-26T08:38:18;101642.25;;;21.17;64.99
64908;BME280;51412;52.236;5.188;2022-07-26T08:40:47;101641.09;;;21.18;65.06
64908;BME280;51412;52.236;5.188;2022-07-26T08:43:13;101645.25;;;21.23;65.53
64908;BME280;51412;52.236;5.188;2022-07-26T08:45:40;101659.38;;;21.30;65.14
64908;BME280;51412;52.236;5.188;2022-07-26T08:48:08;101650.72;;;21.19;66.03
64908;BME280;51412;52.236;5.188;2022-07-26T08:50:35;101648.41;;;21.17;66.49
64908;BME280;51412;52.236;5.188;2022-07-26T08:53:03;101656.13;;;21.19;67.05
64908;BME280;51412;52.236;5.188;2022-07-26T08:55:34;101658.84;;;21.19;67.37
64908;BME280;51412;52.236;5.188;2022-07-26T08:58:01;101664.25;;;21.19;66.72
64908;BME280;51412;52.236;5.188;2022-07-26T09:00:29;101668.13;;;21.18;66.94
64908;BME280;51412;52.236;5.188;2022-07-26T09:02:57;101670.03;;;21.17;67.60
64908;BME280;51412;52.236;5.188;2022-07-26T09:05:30;101677.63;;;21.26;67.12
64908;BME280;51412;52.236;5.188;2022-07-26T09:07:57;101673.09;;;21.40;66.92
64908;BME280;51412;52.236;5.188;2022-07-26T09:10:25;101672.09;;;21.50;66.91
64908;BME280;51412;52.236;5.188;2022-07-26T09:12:53;101675.19;;;21.32;65.32
64908;BME280;51412;52.236;5.188;2022-07-26T09:15:23;101682.34;;;21.42;65.16
64908;BME280;51412;52.236;5.188;2022-07-26T09:17:51;101692.31;;;21.45;66.42
64908;BME280;51412;52.236;5.188;2022-07-26T09:20:22;101684.94;;;21.46;65.77
64908;BME280;51412;52.236;5.188;2022-07-26T09:23:02;101698.63;;;21.39;65.20
64908;BME280;51412;52.236;5.188;2022-07-26T09:25:31;101702.59;;;21.34;65.27
64908;BME280;51412;52.236;5.188;2022-07-26T09:27:58;101697.66;;;21.29;65.73
64908;BME280;51412;52.236;5.188;2022-07-26T09:30:25;101698.69;;;21.35;65.22
64908;BME280;51412;52.236;5.188;2022-07-26T09:32:58;101699.94;;;21.30;64.22
64908;BME280;51412;52.236;5.188;2022-07-26T09:35:26;101703.81;;;21.29;63.99
64908;BME280;51412;52.236;5.188;2022-07-26T09:37:53;101705.63;;;21.36;63.14
64908;BME280;51412;52.236;5.188;2022-07-26T09:40:21;101707.91;;;21.37;63.66
64908;BME280;51412;52.236;5.188;2022-07-26T09:42:55;101706.66;;;21.42;63.00
64908;BME280;51412;52.236;5.188;2022-07-26T09:45:22;101708.81;;;21.51;62.79
64908;BME280;51412;52.236;5.188;2022-07-26T09:47:49;101707.50;;;21.59;62.24
64908;BME280;51412;52.236;5.188;2022-07-26T09:50:18;101706.69;;;21.62;61.58
64908;BME280;51412;52.236;5.188;2022-07-26T09:53:03;101711.88;;;21.73;59.77
64908;BME280;51412;52.236;5.188;2022-07-26T09:55:33;101718.59;;;21.65;59.76
64908;BME280;51412;52.236;5.188;2022-07-26T09:58:00;101715.81;;;21.68;60.08
64908;BME280;51412;52.236;5.188;2022-07-26T10:00:31;101714.00;;;21.82;60.08
64908;BME280;51412;52.236;5.188;2022-07-26T10:02:57;101724.16;;;21.94;58.89
64908;BME280;51412;52.236;5.188;2022-07-26T10:05:25;101727.56;;;21.98;59.13
64908;BME280;51412;52.236;5.188;2022-07-26T10:07:51;101738.53;;;21.91;59.92
64908;BME280;51412;52.236;5.188;2022-07-26T10:10:21;101737.94;;;21.83;60.22
64908;BME280;51412;52.236;5.188;2022-07-26T10:12:51;101750.09;;;21.75;60.03
64908;BME280;51412;52.236;5.188;2022-07-26T10:15:35;101759.38;;;21.54;60.48
64908;BME280;51412;52.236;5.188;2022-07-26T10:18:03;101753.38;;;21.43;60.95
64908;BME280;51412;52.236;5.188;2022-07-26T10:20:53;101754.34;;;21.32;61.07
64908;BME280;51412;52.236;5.188;2022-07-26T10:23:39;101764.00;;;21.33;61.36
64908;BME280;51412;52.236;5.188;2022-07-26T10:26:09;101767.06;;;21.35;60.79
64908;BME280;51412;52.236;5.188;2022-07-26T10:28:38;101760.47;;;21.36;60.60
64908;BME280;51412;52.236;5.188;2022-07-26T10:31:28;101760.47;;;21.36;60.16
64908;BME280;51412;52.236;5.188;2022-07-26T10:33:56;101770.72;;;21.45;60.55
64908;BME280;51412;52.236;5.188;2022-07-26T10:36:25;101771.09;;;21.67;59.60
64908;BME280;51412;52.236;5.188;2022-07-26T10:39:07;101772.09;;;21.77;58.40
64908;BME280;51412;52.236;5.188;2022-07-26T10:41:37;101762.50;;;21.73;58.79
64908;BME280;51412;52.236;5.188;2022-07-26T10:44:32;101762.84;;;21.75;58.45
64908;BME280;51412;52.236;5.188;2022-07-26T10:47:17;101772.88;;;21.94;58.61
64908;BME280;51412;52.236;5.188;2022-07-26T10:49:55;101762.03;;;22.14;57.87
64908;BME280;51412;52.236;5.188;2022-07-26T10:52:24;101760.66;;;22.43;57.50
64908;BME280;51412;52.236;5.188;2022-07-26T10:55:09;101757.78;;;22.66;56.13
64908;BME280;51412;52.236;5.188;2022-07-26T10:57:37;101767.13;;;22.95;55.98
64908;BME280;51412;52.236;5.188;2022-07-26T11:00:22;101769.13;;;23.24;55.56
64908;BME280;51412;52.236;5.188;2022-07-26T11:02:53;101771.56;;;23.34;54.69
64908;BME280;51412;52.236;5.188;2022-07-26T11:05:21;101773.84;;;23.36;54.41
64908;BME280;51412;52.236;5.188;2022-07-26T11:08:00;101781.63;;;23.34;54.12
64908;BME280;51412;52.236;5.188;2022-07-26T11:10:31;101781.22;;;23.35;53.43
64908;BME280;51412;52.236;5.188;2022-07-26T11:13:06;101781.50;;;23.25;54.65
64908;BME280;51412;52.236;5.188;2022-07-26T11:15:35;101795.72;;;23.12;54.07
64908;BME280;51412;52.236;5.188;2022-07-26T11:18:09;101800.50;;;22.92;55.13
64908;BME280;51412;52.236;5.188;2022-07-26T11:20:36;101804.66;;;22.80;55.41
64908;BME280;51412;52.236;5.188;2022-07-26T11:23:03;101803.31;;;22.71;56.12
64908;BME280;51412;52.236;5.188;2022-07-26T11:25:42;101801.69;;;22.58;55.83
64908;BME280;51412;52.236;5.188;2022-07-26T11:28:08;101806.94;;;22.48;55.97
64908;BME280;51412;52.236;5.188;2022-07-26T11:30:54;101803.97;;;22.43;55.30
64908;BME280;51412;52.236;5.188;2022-07-26T11:33:33;101815.91;;;22.45;55.46
64908;BME280;51412;52.236;5.188;2022-07-26T11:36:00;101811.88;;;22.33;56.20
64908;BME280;51412;52.236;5.188;2022-07-26T11:38:42;101812.38;;;22.28;55.83
64908;BME280;51412;52.236;5.188;2022-07-26T11:41:08;101816.00;;;22.21;56.34
64908;BME280;51412;52.236;5.188;2022-07-26T11:43:36;101815.94;;;22.25;56.26
64908;BME280;51412;52.236;5.188;2022-07-26T11:46:04;101817.31;;;22.33;55.73
64908;BME280;51412;52.236;5.188;2022-07-26T11:48:31;101820.66;;;22.21;55.72
64908;BME280;51412;52.236;5.188;2022-07-26T11:51:07;101811.41;;;22.02;56.13
64908;BME280;51412;52.236;5.188;2022-07-26T11:53:34;101813.34;;;22.01;57.41
64908;BME280;51412;52.236;5.188;2022-07-26T11:56:12;101820.28;;;22.02;57.63
64908;BME280;51412;52.236;5.188;2022-07-26T11:58:39;101812.34;;;22.12;57.29
64908;BME280;51412;52.236;5.188;2022-07-26T12:01:08;101817.00;;;22.11;57.37
64908;BME280;51412;52.236;5.188;2022-07-26T12:03:36;101821.84;;;22.20;57.25
64908;BME280;51412;52.236;5.188;2022-07-26T12:06:04;101824.41;;;22.27;56.66
64908;BME280;51412;52.236;5.188;2022-07-26T12:08:42;101824.66;;;22.16;54.92
64908;BME280;51412;52.236;5.188;2022-07-26T12:11:09;101825.41;;;22.17;54.94
64908;BME280;51412;52.236;5.188;2022-07-26T12:13:54;101825.66;;;22.23;54.00
64908;BME280;51412;52.236;5.188;2022-07-26T12:16:37;101825.13;;;22.11;53.71
64908;BME280;51412;52.236;5.188;2022-07-26T12:19:05;101823.19;;;22.12;54.41
64908;BME280;51412;52.236;5.188;2022-07-26T12:21:41;101817.97;;;22.21;53.93
64908;BME280;51412;52.236;5.188;2022-07-26T12:24:08;101825.38;;;22.37;53.75
64908;BME280;51412;52.236;5.188;2022-07-26T12:26:35;101820.84;;;22.50;53.91
64908;BME280;51412;52.236;5.188;2022-07-26T12:29:02;101831.84;;;22.60;53.78
64908;BME280;51412;52.236;5.188;2022-07-26T12:31:59;101824.22;;;22.54;52.93
64908;BME280;51412;52.236;5.188;2022-07-26T12:34:26;101830.91;;;22.50;53.08
64908;BME280;51412;52.236;5.188;2022-07-26T12:36:53;101832.59;;;22.44;53.13
64908;BME280;51412;52.236;5.188;2022-07-26T12:39:20;101825.66;;;22.43;54.05
64908;BME280;51412;52.236;5.188;2022-07-26T12:41:47;101829.09;;;22.43;53.66
64908;BME280;51412;52.236;5.188;2022-07-26T12:44:15;101829.19;;;22.40;52.52
64908;BME280;51412;52.236;5.188;2022-07-26T12:46:42;101829.63;;;22.38;53.31
64908;BME280;51412;52.236;5.188;2022-07-26T12:49:11;101842.06;;;22.35;53.16
64908;BME280;51412;52.236;5.188;2022-07-26T12:51:37;101829.69;;;22.34;53.62
64908;BME280;51412;52.236;5.188;2022-07-26T12:54:04;101833.09;;;22.39;53.79
64908;BME280;51412;52.236;5.188;2022-07-26T12:56:31;101840.78;;;22.40;53.51